Time;durP1;ratioP1;P1;durP2;ratioP2;P2;SDS_P1;SDS_P2;PMS_P1;PMS_P2;Temp;Humidity;BMP_temperature;BMP_pressure;BME280_temperature;BME280_humidity;BME280_pressure;Samples;Min_cycle;Max_cycle;Signal;HPM_P1;HPM_P2
2022/07/06 07:15:20;;;;;;;7.30;1.80;;;17.20;89.00;;;;;;5164070;27;20329;-53
2022/07/06 07:17:47;;;;;;;7.00;2.00;;;17.20;88.80;;;;;;5129813;27;20102;-50
2022/07/06 07:20:14;;;;;;;3.65;1.70;;;17.20;88.80;;;;;;5130869;28;20078;-52
2022/07/06 07:22:40;;;;;;;10.30;1.90;;;17.30;88.60;;;;;;5123722;28;20035;-52
2022/07/06 07:25:07;;;;;;;6.00;1.83;;;17.40;88.60;;;;;;5119254;28;20044;-53
2022/07/06 07:27:34;;;;;;;5.55;2.03;;;17.50;88.00;;;;;;5124913;27;20043;-49
2022/07/06 07:30:01;;;;;;;5.90;2.08;;;17.70;87.80;;;;;;5111629;28;20063;-57
2022/07/06 07:32:28;;;;;;;5.35;1.70;;;17.90;87.50;;;;;;5130862;28;20039;-51
2022/07/06 07:34:54;;;;;;;6.82;1.80;;;18.10;86.90;;;;;;5127590;28;20482;-50
2022/07/06 07:37:21;;;;;;;5.35;2.03;;;18.30;86.60;;;;;;5128457;28;20031;-51
2022/07/06 07:39:48;;;;;;;7.43;2.17;;;18.40;85.80;;;;;;5130042;28;20428;-50
2022/07/06 07:42:15;;;;;;;7.50;1.58;;;18.40;85.60;;;;;;5130615;28;20035;-52
2022/07/06 07:44:44;;;;;;;10.23;1.90;;;18.40;85.90;;;;;;5130484;28;20036;-57
2022/07/06 07:47:10;;;;;;;6.38;1.95;;;18.50;86.20;;;;;;5130410;28;20043;-49
2022/07/06 07:49:37;;;;;;;6.05;2.28;;;18.60;86.60;;;;;;5130561;28;20391;-48
2022/07/06 07:52:04;;;;;;;4.95;1.65;;;18.70;86.90;;;;;;5111888;28;20046;-56
2022/07/06 07:54:31;;;;;;;5.20;2.03;;;18.80;86.50;;;;;;5111954;28;20043;-54
2022/07/06 07:56:57;;;;;;;6.15;2.10;;;18.90;86.70;;;;;;5130213;28;20047;-49
2022/07/06 07:59:24;;;;;;;5.18;1.55;;;19.00;86.60;;;;;;5127725;28;20387;-46
2022/07/06 08:01:52;;;;;;;8.25;1.67;;;19.20;85.70;;;;;;5111308;28;20092;-50
2022/07/06 08:04:19;;;;;;;5.85;1.67;;;19.30;86.10;;;;;;5123160;28;20435;-48
2022/07/06 08:06:46;;;;;;;3.60;1.50;;;19.40;85.90;;;;;;5130394;28;20039;-52
2022/07/06 08:09:13;;;;;;;9.15;1.80;;;19.30;86.00;;;;;;5130472;28;20043;-44
2022/07/06 08:11:39;;;;;;;6.68;1.55;;;19.40;86.10;;;;;;5130528;28;20374;-51
2022/07/06 08:14:06;;;;;;;5.90;1.58;;;19.40;86.40;;;;;;5130021;28;20052;-49
2022/07/06 08:16:33;;;;;;;3.80;1.70;;;19.40;86.30;;;;;;5130272;28;20043;-53
2022/07/06 08:19:00;;;;;;;5.13;1.52;;;19.40;86.40;;;;;;5130286;28;20043;-47
2022/07/06 08:21:32;;;;;;;4.60;1.80;;;19.50;86.40;;;;;;5130284;28;20045;-49
2022/07/06 08:24:00;;;;;;;6.00;1.42;;;19.40;86.70;;;;;;5130125;28;20036;-45
2022/07/06 08:26:27;;;;;;;4.05;1.60;;;19.40;87.40;;;;;;5100106;28;20043;-56
2022/07/06 08:28:54;;;;;;;3.97;1.33;;;19.30;87.70;;;;;;5097694;28;20046;-49
2022/07/06 08:31:22;;;;;;;6.43;1.58;;;19.20;88.30;;;;;;5116362;28;20096;-51
2022/07/06 08:34:09;;;;;;;3.53;1.48;;;19.30;88.40;;;;;;5114825;28;20044;-55
2022/07/06 08:36:36;;;;;;;6.35;1.65;;;19.30;88.30;;;;;;5116071;28;20043;-55
2022/07/06 08:39:03;;;;;;;2.20;1.50;;;19.20;88.60;;;;;;5116087;28;20443;-54
2022/07/06 08:41:30;;;;;;;4.93;1.50;;;19.40;88.90;;;;;;5116546;28;20394;-50
2022/07/06 08:43:57;;;;;;;5.68;1.58;;;19.60;88.70;;;;;;5115816;28;20130;-49
2022/07/06 08:46:24;;;;;;;8.25;1.48;;;19.90;88.20;;;;;;5115943;28;20118;-52
2022/07/06 08:48:51;;;;;;;5.95;1.50;;;20.20;87.80;;;;;;5115797;28;20040;-51
2022/07/06 08:51:19;;;;;;;6.75;1.60;;;20.50;86.70;;;;;;5097384;28;20490;-52
2022/07/06 08:53:48;;;;;;;3.78;1.60;;;20.50;86.90;;;;;;5115523;28;20482;-50
2022/07/06 08:56:15;;;;;;;5.13;1.60;;;20.40;86.90;;;;;;5115809;28;20550;-48
2022/07/06 08:58:42;;;;;;;3.75;1.50;;;20.50;87.00;;;;;;5096986;28;20047;-49
2022/07/06 09:01:09;;;;;;;5.32;1.75;;;20.40;87.60;;;;;;5115273;28;20047;-49
2022/07/06 09:03:36;;;;;;;5.65;1.50;;;20.50;87.80;;;;;;5115345;28;20051;-52
2022/07/06 09:06:03;;;;;;;4.18;1.30;;;20.60;87.80;;;;;;5115326;28;20114;-53
2022/07/06 09:08:30;;;;;;;4.40;1.15;;;20.80;87.80;;;;;;5115369;28;20038;-55
2022/07/06 09:10:56;;;;;;;5.95;1.42;;;20.90;87.50;;;;;;5115375;28;20040;-51
2022/07/06 09:13:23;;;;;;;2.63;1.10;;;20.90;87.80;;;;;;5114847;28;20051;-50
2022/07/06 09:15:51;;;;;;;5.57;1.45;;;20.80;88.00;;;;;;5115350;28;20062;-54
2022/07/06 09:18:38;;;;;;;4.20;1.30;;;20.90;88.10;;;;;;5115271;28;20160;-46
2022/07/06 09:21:04;;;;;;;2.85;1.17;;;21.20;87.90;;;;;;5115142;28;20482;-51
2022/07/06 09:23:31;;;;;;;2.63;0.95;;;21.20;87.50;;;;;;5114848;28;20074;-58
2022/07/06 09:25:58;;;;;;;2.35;1.10;;;21.20;87.80;;;;;;5111992;28;20036;-57
2022/07/06 09:28:25;;;;;;;6.00;1.20;;;21.10;87.70;;;;;;5114378;28;20038;-51
2022/07/06 09:30:52;;;;;;;3.92;1.23;;;21.00;88.20;;;;;;5095947;28;20489;-53
2022/07/06 09:33:19;;;;;;;2.28;1.02;;;21.00;88.20;;;;;;5114493;28;20039;-53
2022/07/06 09:35:47;;;;;;;3.20;1.35;;;21.10;88.10;;;;;;5114621;28;20383;-53
2022/07/06 09:38:14;;;;;;;2.75;1.20;;;21.20;88.10;;;;;;5112773;28;20061;-49
2022/07/06 09:40:41;;;;;;;3.10;1.00;;;21.20;87.70;;;;;;5115205;28;20500;-54
2022/07/06 09:43:08;;;;;;;1.65;0.80;;;21.20;87.40;;;;;;5115074;28;20126;-47
2022/07/06 09:45:34;;;;;;;1.83;0.90;;;21.20;87.40;;;;;;5114292;28;20092;-56
2022/07/06 09:48:01;;;;;;;5.78;1.05;;;21.20;87.30;;;;;;5114986;28;20058;-52
2022/07/06 09:50:28;;;;;;;2.72;0.85;;;21.20;87.70;;;;;;5114848;28;20114;-53
2022/07/06 09:52:55;;;;;;;3.63;1.00;;;21.40;87.30;;;;;;5113982;28;20051;-48
2022/07/06 09:55:22;;;;;;;2.78;1.10;;;21.40;86.70;;;;;;5114915;28;20377;-51
2022/07/06 09:57:48;;;;;;;3.22;1.10;;;21.60;86.50;;;;;;5113904;28;20059;-56
2022/07/06 10:00:15;;;;;;;2.28;1.00;;;21.60;86.20;;;;;;5096186;28;20032;-53
2022/07/06 10:02:42;;;;;;;2.03;0.98;;;21.80;86.00;;;;;;5113556;28;20036;-51
2022/07/06 10:05:09;;;;;;;2.70;1.00;;;21.70;85.80;;;;;;5113653;28;20043;-52
2022/07/06 10:07:35;;;;;;;3.90;1.13;;;21.70;86.00;;;;;;5114368;28;20036;-49
2022/07/06 10:10:02;;;;;;;2.67;0.98;;;21.90;85.70;;;;;;5114499;28;20043;-53
2022/07/06 10:12:29;;;;;;;3.13;1.00;;;21.90;85.20;;;;;;5113892;28;20402;-48
2022/07/06 10:14:56;;;;;;;4.00;1.00;;;21.90;85.00;;;;;;5114274;28;20058;-55
2022/07/06 10:17:23;;;;;;;4.55;1.25;;;21.90;85.40;;;;;;5113433;28;20378;-54
2022/07/06 10:19:50;;;;;;;2.20;0.90;;;21.80;86.00;;;;;;5114107;28;20039;-54
2022/07/06 10:22:17;;;;;;;2.00;1.00;;;21.90;86.20;;;;;;5114172;28;20048;-50
2022/07/06 10:24:44;;;;;;;3.17;0.93;;;22.00;84.90;;;;;;5113071;28;20048;-51
2022/07/06 10:27:11;;;;;;;1.98;0.90;;;21.90;84.80;;;;;;5113965;28;20043;-49
2022/07/06 10:29:38;;;;;;;3.20;0.90;;;22.00;85.10;;;;;;5112624;28;20054;-49
2022/07/06 10:32:04;;;;;;;1.80;1.08;;;22.20;85.00;;;;;;5113506;28;20039;-49
2022/07/06 10:34:31;;;;;;;3.90;0.75;;;22.10;84.10;;;;;;5113616;28;20070;-50
2022/07/06 10:36:58;;;;;;;2.47;0.90;;;22.30;84.40;;;;;;5113649;28;20051;-54
2022/07/06 10:42:10;;;;;;;2.75;1.00;;;22.70;83.80;;;;;;5113627;28;20044;-49
2022/07/06 10:44:37;;;;;;;4.32;1.00;;;22.80;83.00;;;;;;5113376;28;20405;-46
2022/07/06 10:47:04;;;;;;;1.90;0.80;;;22.90;83.10;;;;;;5113249;28;20040;-51
2022/07/06 10:49:30;;;;;;;3.88;1.02;;;23.00;82.80;;;;;;5113312;28;20039;-55
2022/07/06 10:52:17;;;;;;;3.25;1.10;;;22.90;82.80;;;;;;5113334;28;20048;-51
2022/07/06 10:54:44;;;;;;;3.92;0.90;;;22.90;82.80;;;;;;5113173;28;20073;-54
2022/07/06 10:57:11;;;;;;;1.73;0.82;;;22.90;82.80;;;;;;5113591;28;20096;-51
2022/07/06 10:59:37;;;;;;;4.72;0.90;;;22.80;82.50;;;;;;5113239;28;20044;-54
2022/07/06 11:02:04;;;;;;;3.75;0.93;;;22.80;83.30;;;;;;5113380;28;20047;-57
2022/07/06 11:04:31;;;;;;;3.13;1.13;;;22.80;82.80;;;;;;5112276;28;20042;-53
2022/07/06 11:06:58;;;;;;;5.57;1.02;;;22.70;83.10;;;;;;5113342;28;20047;-53
2022/07/06 11:09:24;;;;;;;2.58;1.00;;;22.80;83.00;;;;;;5113292;28;20463;-53
2022/07/06 11:11:51;;;;;;;4.25;0.82;;;22.90;83.20;;;;;;5112458;28;20115;-48
2022/07/06 11:14:18;;;;;;;2.75;0.90;;;23.20;83.00;;;;;;5112818;28;20051;-54
2022/07/06 11:16:45;;;;;;;1.20;0.60;;;23.30;82.00;;;;;;5113225;28;20062;-54
2022/07/06 11:19:12;;;;;;;2.85;0.60;;;23.40;80.90;;;;;;5113006;28;20035;-51
2022/07/06 11:21:38;;;;;;;1.63;0.60;;;23.20;81.40;;;;;;5112655;28;20044;-53
2022/07/06 11:24:05;;;;;;;2.28;0.75;;;23.00;80.80;;;;;;5112696;28;20043;-51
2022/07/06 11:26:32;;;;;;;3.50;0.80;;;23.10;82.00;;;;;;5112968;28;20035;-53
2022/07/06 11:29:06;;;;;;;2.30;0.77;;;23.00;81.70;;;;;;5113102;28;20482;-53
2022/07/06 11:31:33;;;;;;;2.33;0.73;;;23.00;81.30;;;;;;5112987;28;20035;-54
2022/07/06 11:34:00;;;;;;;3.83;0.80;;;23.00;81.30;;;;;;5113129;28;20435;-52
2022/07/06 11:36:27;;;;;;;6.40;0.75;;;23.20;81.00;;;;;;5113286;28;20122;-53
2022/07/06 11:39:01;;;;;;;2.60;0.80;;;23.20;80.80;;;;;;5106440;28;20043;-54
2022/07/06 11:41:28;;;;;;;1.77;0.80;;;23.40;81.10;;;;;;5113193;28;20028;-53
2022/07/06 11:43:54;;;;;;;1.95;0.70;;;23.60;80.70;;;;;;5112280;28;20071;-54
2022/07/06 11:46:21;;;;;;;2.15;0.60;;;23.70;80.50;;;;;;5113197;28;20104;-50
2022/07/06 11:48:48;;;;;;;4.47;0.70;;;23.70;80.30;;;;;;5113286;28;20039;-50
2022/07/06 11:51:15;;;;;;;2.95;0.85;;;23.80;79.90;;;;;;5113134;28;20040;-53
2022/07/06 11:53:42;;;;;;;2.47;0.60;;;23.80;79.50;;;;;;5113016;28;20043;-53
2022/07/06 11:56:09;;;;;;;4.07;0.70;;;23.80;79.30;;;;;;5113127;28;20075;-51
2022/07/06 11:58:35;;;;;;;1.75;0.60;;;23.80;79.40;;;;;;5113385;28;20405;-50
2022/07/06 12:01:03;;;;;;;2.03;0.68;;;23.80;78.80;;;;;;5115113;28;20084;-50
2022/07/06 12:03:29;;;;;;;2.05;0.70;;;23.90;78.90;;;;;;5117188;28;20101;-54
2022/07/06 12:05:57;;;;;;;5.65;0.70;;;23.90;78.70;;;;;;5116839;28;20456;-52
2022/07/06 12:08:24;;;;;;;2.50;0.70;;;24.00;78.20;;;;;;5098018;28;20039;-56
2022/07/06 12:10:52;;;;;;;3.58;0.60;;;23.90;78.60;;;;;;5115831;28;20039;-53
2022/07/06 12:13:19;;;;;;;3.38;0.80;;;23.90;78.10;;;;;;5109537;28;20048;-60
2022/07/06 12:15:46;;;;;;;2.05;0.60;;;23.90;78.80;;;;;;5115451;28;20101;-50
2022/07/06 12:18:12;;;;;;;2.97;0.60;;;24.00;78.80;;;;;;5098457;28;20101;-54
2022/07/06 12:20:39;;;;;;;2.08;0.70;;;24.00;77.80;;;;;;5116074;28;20044;-50
2022/07/06 12:23:06;;;;;;;1.70;0.80;;;23.90;78.40;;;;;;5116842;28;20413;-51
2022/07/06 12:25:33;;;;;;;3.33;0.68;;;24.00;78.10;;;;;;5098485;28;20067;-49
2022/07/06 12:27:59;;;;;;;1.52;0.50;;;24.10;77.60;;;;;;5115885;28;20413;-56
2022/07/06 12:30:26;;;;;;;2.30;0.68;;;24.10;77.50;;;;;;5116387;28;20046;-53
2022/07/06 12:32:53;;;;;;;1.85;0.60;;;23.80;78.10;;;;;;5115642;28;20035;-53
2022/07/06 12:35:20;;;;;;;2.83;0.70;;;23.70;78.40;;;;;;5116450;28;20052;-52
2022/07/06 12:37:46;;;;;;;4.15;0.73;;;23.70;78.80;;;;;;5115325;28;20039;-55
2022/07/06 12:40:13;;;;;;;2.88;0.77;;;23.60;78.50;;;;;;5116398;28;20036;-53
2022/07/06 12:42:40;;;;;;;1.90;0.60;;;23.60;78.80;;;;;;5116116;28;20058;-50
2022/07/06 12:45:07;;;;;;;1.58;0.60;;;23.70;78.40;;;;;;5115251;28;20592;-51
2022/07/06 12:47:33;;;;;;;4.90;0.77;;;23.80;77.90;;;;;;5116134;28;20500;-50
2022/07/06 12:50:00;;;;;;;3.17;0.73;;;23.90;78.10;;;;;;5115104;28;20036;-52
2022/07/06 12:52:27;;;;;;;1.05;0.50;;;24.10;77.70;;;;;;5116005;28;20043;-47
2022/07/06 12:54:54;;;;;;;3.70;0.60;;;24.30;77.40;;;;;;5115953;28;20062;-52
2022/07/06 12:57:22;;;;;;;2.30;0.75;;;24.30;76.70;;;;;;5115259;28;20037;-54
2022/07/06 12:59:49;;;;;;;4.85;0.80;;;24.30;77.30;;;;;;5115946;28;20520;-53
2022/07/06 13:02:16;;;;;;;2.28;0.50;;;24.20;76.90;;;;;;5115490;28;20544;-54
2022/07/06 13:04:43;;;;;;;2.25;0.70;;;24.30;77.20;;;;;;5115623;28;20039;-56
2022/07/06 13:07:10;;;;;;;1.33;0.50;;;24.50;76.90;;;;;;5114909;28;20039;-53
2022/07/06 13:09:36;;;;;;;3.17;0.70;;;24.60;76.10;;;;;;5115763;28;20117;-55
2022/07/06 13:12:03;;;;;;;1.67;0.70;;;24.70;76.60;;;;;;5096514;28;20112;-54
2022/07/06 13:14:30;;;;;;;3.88;0.80;;;24.70;76.20;;;;;;5115537;28;20047;-58
2022/07/06 13:16:57;;;;;;;4.25;0.80;;;24.70;75.90;;;;;;5114309;28;20126;-53
2022/07/06 13:19:23;;;;;;;3.13;0.93;;;24.60;76.50;;;;;;5115702;28;20568;-52
2022/07/06 13:21:50;;;;;;;1.70;0.60;;;24.70;76.00;;;;;;5115757;28;20036;-51
2022/07/06 13:24:17;;;;;;;1.90;0.70;;;24.90;75.40;;;;;;5097600;28;20043;-54
2022/07/06 13:26:44;;;;;;;4.75;0.80;;;24.90;75.30;;;;;;5097354;28;20072;-49
2022/07/06 13:29:11;;;;;;;1.77;0.70;;;25.00;75.00;;;;;;5114216;28;20040;-49
2022/07/06 13:31:38;;;;;;;4.72;0.70;;;25.00;75.20;;;;;;5095637;28;20043;-52
2022/07/06 13:34:05;;;;;;;4.50;0.70;;;25.20;74.50;;;;;;5114646;28;20055;-51
2022/07/06 13:36:32;;;;;;;3.83;0.80;;;25.30;74.00;;;;;;5114251;28;20043;-49
2022/07/06 13:38:59;;;;;;;2.00;0.60;;;25.20;74.20;;;;;;5114769;28;20069;-50
2022/07/06 13:41:25;;;;;;;1.27;0.60;;;25.20;73.70;;;;;;5114837;28;20054;-52
2022/07/06 13:43:52;;;;;;;1.52;0.57;;;25.10;74.00;;;;;;5114601;28;20047;-52
2022/07/06 13:46:20;;;;;;;1.50;0.50;;;24.70;74.60;;;;;;5113593;28;20036;-52
2022/07/06 13:48:47;;;;;;;3.47;1.00;;;24.50;75.50;;;;;;5113630;28;20112;-49
2022/07/06 13:51:14;;;;;;;2.58;0.85;;;24.50;75.60;;;;;;5113785;28;20043;-56
2022/07/06 13:53:41;;;;;;;2.88;0.68;;;24.50;75.80;;;;;;5113687;28;20040;-56
2022/07/06 13:56:08;;;;;;;1.17;0.57;;;24.50;75.50;;;;;;5112659;28;20050;-50
2022/07/06 13:58:34;;;;;;;3.45;0.60;;;24.50;75.60;;;;;;5113625;28;20047;-52
2022/07/06 14:01:01;;;;;;;2.55;0.85;;;24.60;75.90;;;;;;5114316;28;20050;-49
2022/07/06 14:03:29;;;;;;;2.10;0.70;;;24.60;75.70;;;;;;5114617;28;20047;-56
2022/07/06 14:05:57;;;;;;;5.95;0.73;;;24.50;75.30;;;;;;5114587;28;20072;-55
2022/07/06 14:08:23;;;;;;;1.45;0.55;;;24.40;75.60;;;;;;5096113;28;20371;-55
2022/07/06 14:10:50;;;;;;;1.77;0.80;;;24.60;75.70;;;;;;5114484;28;20036;-56
2022/07/06 14:13:17;;;;;;;2.80;0.70;;;24.60;75.10;;;;;;5114086;28;20504;-52
2022/07/06 14:15:45;;;;;;;1.63;0.60;;;24.50;75.10;;;;;;5113541;28;20044;-54
2022/07/06 14:18:12;;;;;;;2.85;0.60;;;24.50;75.00;;;;;;5114274;28;20039;-50
2022/07/06 14:20:39;;;;;;;3.40;0.75;;;24.60;75.60;;;;;;5096069;28;20047;-49
2022/07/06 14:23:06;;;;;;;4.60;0.73;;;24.70;75.90;;;;;;5113731;28;20048;-51
2022/07/06 14:25:33;;;;;;;3.22;0.50;;;24.80;75.40;;;;;;5114070;28;20118;-50
2022/07/06 14:28:00;;;;;;;1.23;0.50;;;24.90;75.10;;;;;;5113975;28;20086;-50
2022/07/06 14:30:26;;;;;;;3.05;0.70;;;24.80;74.80;;;;;;5114170;28;20039;-51
2022/07/06 14:32:53;;;;;;;3.72;0.70;;;24.70;75.10;;;;;;5113937;28;20081;-52
2022/07/06 14:35:20;;;;;;;2.35;0.60;;;24.70;75.20;;;;;;5113156;28;20140;-51
2022/07/06 14:37:46;;;;;;;2.83;0.80;;;24.50;75.10;;;;;;5113883;28;20043;-50
2022/07/06 14:40:13;;;;;;;1.48;0.63;;;24.50;75.30;;;;;;5114010;28;20039;-52
2022/07/06 14:42:40;;;;;;;3.17;0.80;;;24.60;75.70;;;;;;5114059;28;20074;-52
2022/07/06 14:45:07;;;;;;;6.50;0.90;;;24.60;75.80;;;;;;5113139;28;20062;-54
2022/07/06 14:47:33;;;;;;;2.78;0.60;;;24.60;75.20;;;;;;5113823;28;20035;-54
2022/07/06 14:50:00;;;;;;;5.93;0.63;;;24.50;75.30;;;;;;5113969;28;20043;-52
2022/07/06 14:52:27;;;;;;;4.93;0.68;;;24.40;75.60;;;;;;5095485;28;20088;-52
2022/07/06 14:54:54;;;;;;;7.93;1.00;;;24.20;75.40;;;;;;5113827;28;20060;-51
2022/07/06 14:57:20;;;;;;;7.40;1.08;;;24.20;75.90;;;;;;5095374;28;20052;-51
2022/07/06 14:59:47;;;;;;;5.80;0.80;;;24.40;76.10;;;;;;5113998;28;20101;-52
2022/07/06 15:02:14;;;;;;;1.65;0.65;;;24.30;75.30;;;;;;5113598;28;20092;-51
2022/07/06 15:04:41;;;;;;;2.47;0.90;;;24.30;75.70;;;;;;5113496;28;20375;-54
2022/07/06 15:07:07;;;;;;;1.92;0.85;;;24.40;76.00;;;;;;5113591;28;20062;-55
2022/07/06 15:09:34;;;;;;;2.50;1.35;;;24.50;75.40;;;;;;5113866;28;20375;-50
2022/07/06 15:12:02;;;;;;;3.90;0.88;;;24.40;75.30;;;;;;5113495;28;20036;-56
2022/07/06 15:14:29;;;;;;;4.50;0.70;;;24.40;75.10;;;;;;5112839;28;20124;-52
2022/07/06 15:16:56;;;;;;;1.35;0.50;;;24.60;74.20;;;;;;5113636;28;20047;-54
2022/07/06 15:19:23;;;;;;;3.35;0.60;;;24.70;74.30;;;;;;5113827;28;20123;-51
2022/07/06 15:21:50;;;;;;;2.80;0.60;;;24.70;73.70;;;;;;5113468;28;20039;-54
2022/07/06 15:24:16;;;;;;;3.20;0.60;;;24.70;74.00;;;;;;5107097;28;20054;-53
2022/07/06 15:26:43;;;;;;;3.03;0.70;;;24.70;74.30;;;;;;5106886;28;20050;-51
2022/07/06 15:29:10;;;;;;;1.80;0.70;;;24.60;74.00;;;;;;5106816;28;20039;-53
2022/07/06 15:31:37;;;;;;;2.22;0.50;;;24.60;73.70;;;;;;5106977;28;20078;-54
2022/07/06 15:34:03;;;;;;;1.33;0.65;;;24.60;73.90;;;;;;5113302;28;20143;-51
2022/07/06 15:36:30;;;;;;;2.17;0.70;;;24.50;73.90;;;;;;5116108;28;20044;-51
2022/07/06 15:38:57;;;;;;;3.13;0.90;;;24.60;74.50;;;;;;5117361;28;20043;-48
2022/07/06 15:41:24;;;;;;;1.42;0.65;;;24.60;74.10;;;;;;5117758;28;20390;-54
2022/07/06 15:43:51;;;;;;;4.65;0.80;;;24.60;73.80;;;;;;5117299;28;20400;-51
2022/07/06 15:46:21;;;;;;;1.83;0.70;;;24.30;73.80;;;;;;5099888;28;20042;-52
2022/07/06 15:48:48;;;;;;;2.92;0.70;;;24.00;74.20;;;;;;5110548;28;20039;-50
2022/07/06 15:51:14;;;;;;;2.88;0.70;;;24.00;74.20;;;;;;5117136;28;20040;-54
2022/07/06 15:53:45;;;;;;;1.75;0.70;;;24.00;74.50;;;;;;5098667;28;20039;-48
2022/07/06 15:56:14;;;;;;;2.95;0.73;;;24.20;74.70;;;;;;5099074;28;20121;-51
2022/07/06 15:58:42;;;;;;;2.65;0.68;;;24.30;74.70;;;;;;5111106;28;20075;-52
2022/07/06 16:01:08;;;;;;;2.40;0.80;;;24.30;74.30;;;;;;5117075;28;20048;-53
2022/07/06 16:03:37;;;;;;;3.60;0.68;;;24.40;74.70;;;;;;5117171;28;20467;-50
2022/07/06 16:06:04;;;;;;;1.30;0.60;;;24.30;74.30;;;;;;5117001;28;20039;-51
2022/07/06 16:08:36;;;;;;;3.08;1.10;;;24.10;73.70;;;;;;5116879;28;20126;-50
2022/07/06 16:11:12;;;;;;;1.00;0.50;;;24.20;74.40;;;;;;5117150;28;20519;-54
2022/07/06 16:13:39;;;;;;;1.85;0.90;;;24.30;75.00;;;;;;5116713;28;20400;-50
2022/07/06 16:16:06;;;;;;;3.35;1.00;;;24.30;74.00;;;;;;5116954;28;20431;-51
2022/07/06 16:18:33;;;;;;;3.10;0.80;;;24.30;74.50;;;;;;5116614;28;20453;-51
2022/07/06 16:21:00;;;;;;;2.85;0.60;;;24.40;74.30;;;;;;5115929;28;20047;-53
2022/07/06 16:23:26;;;;;;;2.13;0.55;;;24.50;74.30;;;;;;5116761;28;20485;-55
2022/07/06 16:25:54;;;;;;;3.28;0.70;;;24.40;73.90;;;;;;5116436;28;20440;-52
2022/07/06 16:28:22;;;;;;;1.15;0.50;;;24.30;74.00;;;;;;5116513;28;20040;-55
2022/07/06 16:30:49;;;;;;;3.92;1.10;;;24.20;74.20;;;;;;5116463;28;20040;-58
2022/07/06 16:33:16;;;;;;;2.58;0.70;;;24.10;74.20;;;;;;5116541;28;20061;-56
2022/07/06 16:35:42;;;;;;;2.53;0.52;;;24.20;74.50;;;;;;5116322;28;20048;-52
2022/07/06 16:38:17;;;;;;;3.33;0.63;;;24.30;74.00;;;;;;5116481;28;20521;-53
2022/07/06 16:40:43;;;;;;;3.10;0.75;;;24.30;74.10;;;;;;5116280;28;20047;-49
2022/07/06 16:43:11;;;;;;;5.05;0.70;;;24.30;74.00;;;;;;5116317;28;20051;-54
2022/07/06 16:45:38;;;;;;;2.67;0.60;;;24.40;74.30;;;;;;5115759;28;20059;-52
2022/07/06 16:48:06;;;;;;;4.13;1.00;;;24.60;73.70;;;;;;5115721;28;20042;-56
2022/07/06 16:50:33;;;;;;;2.72;0.95;;;24.70;73.60;;;;;;5116248;28;20101;-50
2022/07/06 16:53:00;;;;;;;1.58;0.70;;;25.00;72.90;;;;;;5116251;28;20459;-49
2022/07/06 16:55:28;;;;;;;1.40;0.60;;;25.10;73.30;;;;;;5115994;28;20974;-54
2022/07/06 16:57:55;;;;;;;3.20;0.70;;;25.20;72.20;;;;;;5115925;28;20405;-53
2022/07/06 17:00:21;;;;;;;3.10;0.80;;;25.20;71.60;;;;;;5115910;28;20500;-54
2022/07/06 17:02:48;;;;;;;1.70;0.50;;;25.00;72.00;;;;;;5116011;28;20943;-53
2022/07/06 17:05:15;;;;;;;2.08;0.63;;;24.80;72.60;;;;;;5115855;28;20050;-52
2022/07/06 17:07:42;;;;;;;4.80;0.77;;;24.90;72.60;;;;;;5115639;28;20046;-51
2022/07/06 17:10:09;;;;;;;2.75;1.10;;;25.10;72.20;;;;;;5115701;28;20048;-50
2022/07/06 17:12:35;;;;;;;1.83;0.70;;;25.10;71.50;;;;;;5097351;28;20044;-54
2022/07/06 17:15:02;;;;;;;1.90;0.55;;;25.20;71.50;;;;;;5115540;28;20059;-51
2022/07/06 17:17:29;;;;;;;1.90;0.68;;;25.30;71.20;;;;;;5115479;28;20046;-53
2022/07/06 17:19:55;;;;;;;2.00;0.52;;;25.40;71.20;;;;;;5096686;28;20065;-53
2022/07/06 17:22:22;;;;;;;2.83;0.45;;;25.40;70.90;;;;;;5115491;28;20401;-50
2022/07/06 17:24:49;;;;;;;3.03;0.65;;;25.30;70.80;;;;;;5097687;28;20044;-56
2022/07/06 17:27:16;;;;;;;1.35;0.50;;;25.40;70.60;;;;;;5115238;28;20051;-52
2022/07/06 17:29:43;;;;;;;6.38;0.60;;;25.30;70.20;;;;;;5115273;28;20039;-57
2022/07/06 17:32:10;;;;;;;1.85;0.60;;;25.20;70.70;;;;;;5115278;28;20047;-49
2022/07/06 17:34:39;;;;;;;1.38;0.60;;;25.00;70.50;;;;;;5115063;28;20079;-51
2022/07/06 17:37:05;;;;;;;1.80;0.65;;;24.80;71.00;;;;;;5114929;28;20494;-49
2022/07/06 17:39:32;;;;;;;2.17;0.90;;;24.60;71.50;;;;;;5115221;28;20067;-54
2022/07/06 17:41:59;;;;;;;2.95;0.70;;;24.50;71.90;;;;;;5115075;28;20063;-50
2022/07/06 17:44:26;;;;;;;1.88;0.40;;;24.30;72.10;;;;;;5115028;28;20527;-51
2022/07/06 17:46:53;;;;;;;3.50;0.80;;;24.30;72.40;;;;;;5114732;28;20407;-54
2022/07/06 17:49:19;;;;;;;1.70;0.70;;;24.20;72.50;;;;;;5114798;28;20114;-48
2022/07/06 17:51:46;;;;;;;2.90;0.80;;;24.20;72.80;;;;;;5096679;28;20045;-55
2022/07/06 17:54:13;;;;;;;2.35;1.08;;;24.30;72.80;;;;;;5114934;28;20036;-49
2022/07/06 17:56:40;;;;;;;4.53;1.02;;;24.30;72.90;;;;;;5114754;28;20036;-56
2022/07/06 17:59:06;;;;;;;1.75;0.60;;;24.20;72.80;;;;;;5113934;28;20547;-52
2022/07/06 18:01:33;;;;;;;2.90;0.50;;;24.20;72.80;;;;;;5114950;28;20047;-52
2022/07/06 18:04:00;;;;;;;1.70;0.50;;;24.10;72.90;;;;;;5114668;28;20084;-54
2022/07/06 18:06:27;;;;;;;4.95;0.73;;;24.10;73.10;;;;;;5114633;28;20539;-51
2022/07/06 18:08:53;;;;;;;4.95;2.30;;;24.00;73.40;;;;;;5114271;28;20536;-50
2022/07/06 18:11:20;;;;;;;4.57;1.20;;;24.10;73.60;;;;;;5114894;28;20375;-53
2022/07/06 18:13:47;;;;;;;3.35;0.80;;;24.10;73.60;;;;;;5114275;28;20047;-55
2022/07/06 18:16:13;;;;;;;3.33;0.63;;;24.10;73.10;;;;;;5114338;28;20044;-53
2022/07/06 18:18:40;;;;;;;2.50;0.60;;;24.10;73.30;;;;;;5114131;28;20058;-57
2022/07/06 18:21:07;;;;;;;3.63;0.80;;;24.10;73.40;;;;;;5114413;28;20084;-50
2022/07/06 18:23:34;;;;;;;3.45;0.98;;;24.10;73.30;;;;;;5113724;28;20039;-53
2022/07/06 18:26:02;;;;;;;1.85;0.85;;;24.40;73.00;;;;;;5114251;28;20047;-50
2022/07/06 18:28:29;;;;;;;2.10;0.98;;;24.50;72.60;;;;;;5113997;28;20096;-48
2022/07/06 18:30:56;;;;;;;1.27;0.47;;;24.60;72.90;;;;;;5114396;28;20040;-52
2022/07/06 18:33:25;;;;;;;1.08;0.47;;;24.60;72.50;;;;;;5114120;28;20039;-50
2022/07/06 18:35:53;;;;;;;2.17;0.60;;;24.60;72.80;;;;;;5114040;28;20043;-56
2022/07/06 18:38:21;;;;;;;3.55;1.17;;;24.60;72.50;;;;;;5113927;28;20040;-56
2022/07/06 18:40:47;;;;;;;3.78;0.93;;;24.60;72.70;;;;;;5114026;28;20035;-51
2022/07/06 18:43:15;;;;;;;1.45;0.60;;;24.50;73.00;;;;;;5114536;28;20044;-56
2022/07/06 18:45:42;;;;;;;3.72;0.88;;;24.30;73.20;;;;;;5113884;28;20044;-50
2022/07/06 18:48:12;;;;;;;1.95;0.85;;;24.20;73.70;;;;;;5095874;28;20463;-56
2022/07/06 18:50:39;;;;;;;2.83;0.70;;;24.20;73.90;;;;;;5113807;28;20402;-56
2022/07/06 18:53:06;;;;;;;1.95;0.90;;;24.20;74.00;;;;;;5113797;28;20044;-52
2022/07/06 18:55:33;;;;;;;2.03;0.90;;;24.20;74.10;;;;;;5114280;28;20031;-51
2022/07/06 18:58:00;;;;;;;3.05;0.80;;;24.10;74.30;;;;;;5095472;28;20066;-50
2022/07/06 19:00:26;;;;;;;2.00;0.90;;;24.10;74.50;;;;;;5113863;28;20085;-49
2022/07/06 19:02:53;;;;;;;5.18;0.80;;;24.00;74.70;;;;;;5113748;28;20104;-53
2022/07/06 19:05:20;;;;;;;3.88;1.00;;;23.80;74.80;;;;;;5113596;28;20050;-48
2022/07/06 19:07:47;;;;;;;3.15;1.00;;;23.70;75.00;;;;;;5113662;28;20035;-52
2022/07/06 19:10:13;;;;;;;3.38;1.40;;;23.60;75.30;;;;;;5113585;28;20036;-52
2022/07/06 19:12:40;;;;;;;4.18;1.08;;;23.60;75.70;;;;;;5113685;28;20047;-51
2022/07/06 19:15:07;;;;;;;4.78;1.42;;;23.60;75.30;;;;;;5113611;28;20060;-49
2022/07/06 19:17:34;;;;;;;5.22;0.82;;;23.60;75.40;;;;;;5113581;28;20040;-52
2022/07/06 19:20:01;;;;;;;6.05;0.98;;;23.50;75.30;;;;;;5112750;28;20043;-56
2022/07/06 19:22:28;;;;;;;1.80;0.82;;;23.40;75.50;;;;;;5113708;28;20040;-52
2022/07/06 19:24:54;;;;;;;3.95;0.90;;;23.40;75.60;;;;;;5113496;28;20494;-51
2022/07/06 19:27:21;;;;;;;2.25;0.82;;;23.20;75.90;;;;;;5113417;28;20036;-55
2022/07/06 19:29:48;;;;;;;3.67;1.00;;;23.10;76.10;;;;;;5112825;28;20040;-50
2022/07/06 19:32:20;;;;;;;3.55;0.90;;;23.00;76.30;;;;;;5113512;28;20046;-50
2022/07/06 19:34:47;;;;;;;2.85;1.38;;;23.00;77.00;;;;;;5113427;28;20036;-52
2022/07/06 19:37:14;;;;;;;2.10;1.10;;;23.00;76.40;;;;;;5113673;28;20040;-52
2022/07/06 19:39:41;;;;;;;6.90;1.25;;;22.90;76.20;;;;;;5113399;28;20044;-52
2022/07/06 19:42:08;;;;;;;2.85;0.90;;;22.90;75.90;;;;;;5113521;28;20537;-53
2022/07/06 19:44:35;;;;;;;2.38;0.80;;;22.80;76.00;;;;;;5113429;28;20445;-55
2022/07/06 19:47:02;;;;;;;1.85;0.82;;;22.70;76.20;;;;;;5113226;28;20040;-50
2022/07/06 19:49:28;;;;;;;2.78;0.90;;;22.70;76.50;;;;;;5113640;28;20127;-51
2022/07/06 19:51:55;;;;;;;2.72;1.00;;;22.70;76.60;;;;;;5113551;28;20040;-53
2022/07/06 19:54:22;;;;;;;2.38;1.10;;;22.60;76.70;;;;;;5113347;28;20040;-54
2022/07/06 19:56:49;;;;;;;2.97;1.05;;;22.70;76.80;;;;;;5112679;28;20050;-52
2022/07/06 19:59:15;;;;;;;7.28;3.38;;;22.70;76.90;;;;;;5094927;28;20050;-53
2022/07/06 20:01:42;;;;;;;2.05;1.05;;;22.60;77.10;;;;;;5112907;28;20067;-52
2022/07/06 20:04:09;;;;;;;4.45;1.75;;;22.60;77.40;;;;;;5113237;28;20096;-54